sensor_id;sensor_type;location;lat;lon;timestamp;temperature;humidity
13093;DHT22;6612;49.568;11.000;2022-09-20T00:02:20;13.70;74.10
13093;DHT22;6612;49.568;11.000;2022-09-20T00:04:47;13.70;74.20
13093;DHT22;6612;49.568;11.000;2022-09-20T00:07:16;13.70;74.20
13093;DHT22;6612;49.568;11.000;2022-09-20T00:09:43;13.70;74.10
13093;DHT22;6612;49.568;11.000;2022-09-20T00:12:10;13.70;74.20
13093;DHT22;6612;49.568;11.000;2022-09-20T00:14:37;13.70;74.20
13093;DHT22;6612;49.568;11.000;2022-09-20T00:17:05;13.70;74.10
13093;DHT22;6612;49.568;11.000;2022-09-20T00:19:32;13.70;73.80
13093;DHT22;6612;49.568;11.000;2022-09-20T00:21:59;13.70;73.50
13093;DHT22;6612;49.568;11.000;2022-09-20T00:24:27;13.60;73.30
13093;DHT22;6612;49.568;11.000;2022-09-20T00:26:54;13.60;73.10
13093;DHT22;6612;49.568;11.000;2022-09-20T00:29:22;13.60;73.00
13093;DHT22;6612;49.568;11.000;2022-09-20T00:31:49;13.60;72.90
13093;DHT22;6612;49.568;11.000;2022-09-20T00:34:17;13.50;72.80
13093;DHT22;6612;49.568;11.000;2022-09-20T00:37:01;13.50;72.70
13093;DHT22;6612;49.568;11.000;2022-09-20T00:39:30;13.40;73.30
13093;DHT22;6612;49.568;11.000;2022-09-20T00:41:57;13.40;72.60
13093;DHT22;6612;49.568;11.000;2022-09-20T00:44:49;13.40;72.80
13093;DHT22;6612;49.568;11.000;2022-09-20T00:47:25;13.30;72.60
13093;DHT22;6612;49.568;11.000;2022-09-20T00:49:58;13.30;72.90
13093;DHT22;6612;49.568;11.000;2022-09-20T00:52:28;13.30;72.50
13093;DHT22;6612;49.568;11.000;2022-09-20T00:54:58;13.20;73.10
13093;DHT22;6612;49.568;11.000;2022-09-20T00:57:26;13.30;73.30
13093;DHT22;6612;49.568;11.000;2022-09-20T01:00:02;13.20;73.30
13093;DHT22;6612;49.568;11.000;2022-09-20T01:02:30;13.20;72.70
13093;DHT22;6612;49.568;11.000;2022-09-20T01:04:59;13.20;73.40
13093;DHT22;6612;49.568;11.000;2022-09-20T01:07:26;13.20;73.40
13093;DHT22;6612;49.568;11.000;2022-09-20T01:09:54;13.20;73.50
13093;DHT22;6612;49.568;11.000;2022-09-20T01:12:26;13.20;73.70
13093;DHT22;6612;49.568;11.000;2022-09-20T01:14:56;13.20;73.80
13093;DHT22;6612;49.568;11.000;2022-09-20T01:17:26;13.20;74.10
13093;DHT22;6612;49.568;11.000;2022-09-20T01:20:07;13.20;74.30
13093;DHT22;6612;49.568;11.000;2022-09-20T01:22:44;13.20;73.80
13093;DHT22;6612;49.568;11.000;2022-09-20T01:25:17;13.20;74.40
13093;DHT22;6612;49.568;11.000;2022-09-20T01:27:50;13.20;74.60
13093;DHT22;6612;49.568;11.000;2022-09-20T01:30:19;13.30;74.70
13093;DHT22;6612;49.568;11.000;2022-09-20T01:33:02;13.30;74.70
13093;DHT22;6612;49.568;11.000;2022-09-20T01:35:33;13.30;74.60
13093;DHT22;6612;49.568;11.000;2022-09-20T01:38:23;13.30;74.80
13093;DHT22;6612;49.568;11.000;2022-09-20T01:41:00;13.30;74.70
13093;DHT22;6612;49.568;11.000;2022-09-20T01:43:34;13.30;74.80
13093;DHT22;6612;49.568;11.000;2022-09-20T01:46:12;13.30;74.80
13093;DHT22;6612;49.568;11.000;2022-09-20T01:48:42;13.40;74.90
13093;DHT22;6612;49.568;11.000;2022-09-20T01:51:35;13.40;75.00
13093;DHT22;6612;49.568;11.000;2022-09-20T01:57:38;13.40;74.80
13093;DHT22;6612;49.568;11.000;2022-09-20T02:00:12;13.40;74.70
13093;DHT22;6612;49.568;11.000;2022-09-20T02:03:12;13.60;75.00
13093;DHT22;6612;49.568;11.000;2022-09-20T02:06:12;13.50;74.80
13093;DHT22;6612;49.568;11.000;2022-09-20T02:12:05;13.50;74.80
13093;DHT22;6612;49.568;11.000;2022-09-20T02:14:45;13.50;75.60
13093;DHT22;6612;49.568;11.000;2022-09-20T02:17:19;13.50;74.90
13093;DHT22;6612;49.568;11.000;2022-09-20T02:20:12;13.50;75.00
13093;DHT22;6612;49.568;11.000;2022-09-20T02:23:11;13.50;73.90
13093;DHT22;6612;49.568;11.000;2022-09-20T02:26:17;13.50;74.50
13093;DHT22;6612;49.568;11.000;2022-09-20T02:28:53;13.50;74.40
13093;DHT22;6612;49.568;11.000;2022-09-20T02:31:52;13.50;74.50
13093;DHT22;6612;49.568;11.000;2022-09-20T02:35:01;13.40;74.30
13093;DHT22;6612;49.568;11.000;2022-09-20T02:37:53;13.40;74.20
13093;DHT22;6612;49.568;11.000;2022-09-20T02:40:39;13.40;74.30
13093;DHT22;6612;49.568;11.000;2022-09-20T02:43:17;13.40;74.50
13093;DHT22;6612;49.568;11.000;2022-09-20T02:45:53;13.40;74.50
13093;DHT22;6612;49.568;11.000;2022-09-20T02:48:32;13.40;74.50
13093;DHT22;6612;49.568;11.000;2022-09-20T02:51:11;13.40;74.50
13093;DHT22;6612;49.568;11.000;2022-09-20T02:53:46;13.40;74.40
13093;DHT22;6612;49.568;11.000;2022-09-20T02:56:19;13.40;74.40
13093;DHT22;6612;49.568;11.000;2022-09-20T02:58:54;13.30;74.30
13093;DHT22;6612;49.568;11.000;2022-09-20T03:01:34;13.30;74.00
13093;DHT22;6612;49.568;11.000;2022-09-20T03:04:17;13.30;73.80
13093;DHT22;6612;49.568;11.000;2022-09-20T03:06:54;13.30;73.70
13093;DHT22;6612;49.568;11.000;2022-09-20T03:09:29;13.30;73.80
13093;DHT22;6612;49.568;11.000;2022-09-20T03:12:06;13.30;74.00
13093;DHT22;6612;49.568;11.000;2022-09-20T03:14:41;13.20;74.10
13093;DHT22;6612;49.568;11.000;2022-09-20T03:17:17;13.20;74.30
13093;DHT22;6612;49.568;11.000;2022-09-20T03:19:58;13.20;74.40
13093;DHT22;6612;49.568;11.000;2022-09-20T03:22:38;13.30;74.00
13093;DHT22;6612;49.568;11.000;2022-09-20T03:25:25;13.20;74.30
13093;DHT22;6612;49.568;11.000;2022-09-20T03:28:05;13.20;74.10
13093;DHT22;6612;49.568;11.000;2022-09-20T03:30:44;13.20;74.20
13093;DHT22;6612;49.568;11.000;2022-09-20T03:33:22;13.10;74.20
13093;DHT22;6612;49.568;11.000;2022-09-20T03:36:02;13.10;74.30
13093;DHT22;6612;49.568;11.000;2022-09-20T03:38:47;13.10;74.40
13093;DHT22;6612;49.568;11.000;2022-09-20T03:41:42;13.10;74.30
13093;DHT22;6612;49.568;11.000;2022-09-20T03:47:22;13.10;73.90
13093;DHT22;6612;49.568;11.000;2022-09-20T03:50:08;13.10;73.80
13093;DHT22;6612;49.568;11.000;2022-09-20T03:52:59;13.00;72.70
13093;DHT22;6612;49.568;11.000;2022-09-20T03:55:51;13.00;73.40
13093;DHT22;6612;49.568;11.000;2022-09-20T03:58:33;13.00;73.30
13093;DHT22;6612;49.568;11.000;2022-09-20T04:01:17;12.90;73.30
13093;DHT22;6612;49.568;11.000;2022-09-20T04:03:54;12.90;73.40
13093;DHT22;6612;49.568;11.000;2022-09-20T04:06:39;12.80;73.30
13093;DHT22;6612;49.568;11.000;2022-09-20T04:09:39;12.80;73.10
13093;DHT22;6612;49.568;11.000;2022-09-20T04:12:18;12.80;73.00
13093;DHT22;6612;49.568;11.000;2022-09-20T04:14:56;12.70;73.00
13093;DHT22;6612;49.568;11.000;2022-09-20T04:17:30;12.70;73.00
13093;DHT22;6612;49.568;11.000;2022-09-20T04:20:06;12.70;73.00
13093;DHT22;6612;49.568;11.000;2022-09-20T04:22:41;12.70;72.10
13093;DHT22;6612;49.568;11.000;2022-09-20T04:25:13;12.60;72.80
13093;DHT22;6612;49.568;11.000;2022-09-20T04:27:45;12.50;72.60
13093;DHT22;6612;49.568;11.000;2022-09-20T04:30:17;12.50;72.50
13093;DHT22;6612;49.568;11.000;2022-09-20T04:32:49;12.50;71.60
13093;DHT22;6612;49.568;11.000;2022-09-20T04:35:28;12.50;72.50
13093;DHT22;6612;49.568;11.000;2022-09-20T04:38:17;12.40;72.50
13093;DHT22;6612;49.568;11.000;2022-09-20T04:41:04;12.30;72.20
13093;DHT22;6612;49.568;11.000;2022-09-20T04:56:18;12.10;71.80
13093;DHT22;6612;49.568;11.000;2022-09-20T04:58:48;12.10;72.00
13093;DHT22;6612;49.568;11.000;2022-09-20T05:10:44;12.00;73.00
13093;DHT22;6612;49.568;11.000;2022-09-20T05:13:29;12.00;73.50
13093;DHT22;6612;49.568;11.000;2022-09-20T05:16:03;12.00;74.00
13093;DHT22;6612;49.568;11.000;2022-09-20T05:18:57;12.00;74.50
13093;DHT22;6612;49.568;11.000;2022-09-20T05:21:49;12.00;74.70
13093;DHT22;6612;49.568;11.000;2022-09-20T05:24:36;12.10;75.20
13093;DHT22;6612;49.568;11.000;2022-09-20T05:27:19;12.10;76.10
13093;DHT22;6612;49.568;11.000;2022-09-20T05:29:52;12.10;75.60
13093;DHT22;6612;49.568;11.000;2022-09-20T05:32:26;12.20;75.80
13093;DHT22;6612;49.568;11.000;2022-09-20T05:35:00;12.30;76.00
13093;DHT22;6612;49.568;11.000;2022-09-20T05:37:38;12.30;76.10
13093;DHT22;6612;49.568;11.000;2022-09-20T05:40:21;12.30;76.10
13093;DHT22;6612;49.568;11.000;2022-09-20T05:42:54;12.40;76.20
13093;DHT22;6612;49.568;11.000;2022-09-20T05:45:44;12.40;76.70
13093;DHT22;6612;49.568;11.000;2022-09-20T05:48:15;12.50;76.20
13093;DHT22;6612;49.568;11.000;2022-09-20T05:50:51;12.50;76.30
13093;DHT22;6612;49.568;11.000;2022-09-20T05:56:33;12.60;76.30
13093;DHT22;6612;49.568;11.000;2022-09-20T06:02:20;12.80;77.30
13093;DHT22;6612;49.568;11.000;2022-09-20T06:04:56;12.80;77.60
13093;DHT22;6612;49.568;11.000;2022-09-20T06:07:31;12.90;78.00
13093;DHT22;6612;49.568;11.000;2022-09-20T06:13:39;13.10;77.80
13093;DHT22;6612;49.568;11.000;2022-09-20T06:16:11;13.20;77.90
13093;DHT22;6612;49.568;11.000;2022-09-20T06:18:46;13.30;78.00
13093;DHT22;6612;49.568;11.000;2022-09-20T06:21:23;13.40;78.10
13093;DHT22;6612;49.568;11.000;2022-09-20T06:23:57;13.40;77.80
13093;DHT22;6612;49.568;11.000;2022-09-20T06:26:28;13.50;78.00
13093;DHT22;6612;49.568;11.000;2022-09-20T06:29:01;13.50;78.10
13093;DHT22;6612;49.568;11.000;2022-09-20T06:31:29;13.60;78.40
13093;DHT22;6612;49.568;11.000;2022-09-20T06:33:57;13.70;78.70
13093;DHT22;6612;49.568;11.000;2022-09-20T06:36:28;13.80;78.70
13093;DHT22;6612;49.568;11.000;2022-09-20T06:39:21;13.90;78.50
13093;DHT22;6612;49.568;11.000;2022-09-20T06:42:09;13.90;78.00
13093;DHT22;6612;49.568;11.000;2022-09-20T06:44:38;14.00;78.10
13093;DHT22;6612;49.568;11.000;2022-09-20T06:47:09;14.00;77.80
13093;DHT22;6612;49.568;11.000;2022-09-20T06:49:36;14.10;77.80
13093;DHT22;6612;49.568;11.000;2022-09-20T06:52:04;14.10;77.60
13093;DHT22;6612;49.568;11.000;2022-09-20T06:54:32;14.20;77.60
13093;DHT22;6612;49.568;11.000;2022-09-20T06:57:02;14.20;77.70
13093;DHT22;6612;49.568;11.000;2022-09-20T06:59:30;14.30;77.70
13093;DHT22;6612;49.568;11.000;2022-09-20T07:01:58;14.30;78.10
13093;DHT22;6612;49.568;11.000;2022-09-20T07:04:25;14.40;78.10
13093;DHT22;6612;49.568;11.000;2022-09-20T07:06:52;14.40;78.40
13093;DHT22;6612;49.568;11.000;2022-09-20T07:09:24;14.50;78.50
13093;DHT22;6612;49.568;11.000;2022-09-20T07:11:51;14.60;78.60
13093;DHT22;6612;49.568;11.000;2022-09-20T07:14:19;14.60;78.40
13093;DHT22;6612;49.568;11.000;2022-09-20T07:16:46;14.70;78.50
13093;DHT22;6612;49.568;11.000;2022-09-20T07:19:14;14.80;78.40
13093;DHT22;6612;49.568;11.000;2022-09-20T07:21:41;14.80;78.00
13093;DHT22;6612;49.568;11.000;2022-09-20T07:24:08;15.10;77.10
13093;DHT22;6612;49.568;11.000;2022-09-20T07:26:35;14.90;78.50
13093;DHT22;6612;49.568;11.000;2022-09-20T07:29:03;15.00;78.10
13093;DHT22;6612;49.568;11.000;2022-09-20T07:31:31;15.10;78.40
13093;DHT22;6612;49.568;11.000;2022-09-20T07:33:58;15.10;78.60
13093;DHT22;6612;49.568;11.000;2022-09-20T07:36:26;15.20;78.70
13093;DHT22;6612;49.568;11.000;2022-09-20T07:38:53;15.30;78.10
13093;DHT22;6612;49.568;11.000;2022-09-20T07:41:20;15.40;78.10
13093;DHT22;6612;49.568;11.000;2022-09-20T07:43:48;15.40;77.80
13093;DHT22;6612;49.568;11.000;2022-09-20T07:46:16;15.50;77.60
13093;DHT22;6612;49.568;11.000;2022-09-20T07:48:47;15.60;77.60
13093;DHT22;6612;49.568;11.000;2022-09-20T07:51:14;15.60;77.50
13093;DHT22;6612;49.568;11.000;2022-09-20T07:53:42;15.70;77.40
13093;DHT22;6612;49.568;11.000;2022-09-20T07:56:11;15.80;77.40
13093;DHT22;6612;49.568;11.000;2022-09-20T07:58:38;15.90;76.90
13093;DHT22;6612;49.568;11.000;2022-09-20T08:01:07;16.00;77.30
13093;DHT22;6612;49.568;11.000;2022-09-20T08:03:35;16.10;77.50
13093;DHT22;6612;49.568;11.000;2022-09-20T08:06:04;16.20;78.40
13093;DHT22;6612;49.568;11.000;2022-09-20T08:08:32;16.30;78.20
13093;DHT22;6612;49.568;11.000;2022-09-20T08:11:03;16.50;78.10
13093;DHT22;6612;49.568;11.000;2022-09-20T08:13:34;16.60;76.90
13093;DHT22;6612;49.568;11.000;2022-09-20T08:16:01;16.70;76.80
13093;DHT22;6612;49.568;11.000;2022-09-20T08:18:28;16.80;76.50
13093;DHT22;6612;49.568;11.000;2022-09-20T08:20:55;16.80;77.40
13093;DHT22;6612;49.568;11.000;2022-09-20T08:23:22;16.90;77.20
13093;DHT22;6612;49.568;11.000;2022-09-20T08:25:49;17.00;76.10
13093;DHT22;6612;49.568;11.000;2022-09-20T08:28:17;17.00;75.90
13093;DHT22;6612;49.568;11.000;2022-09-20T08:30:44;17.10;75.60
13093;DHT22;6612;49.568;11.000;2022-09-20T08:33:11;17.10;75.80
13093;DHT22;6612;49.568;11.000;2022-09-20T08:35:38;17.10;74.50
13093;DHT22;6612;49.568;11.000;2022-09-20T08:38:05;17.20;74.00
13093;DHT22;6612;49.568;11.000;2022-09-20T08:40:33;17.20;73.90
13093;DHT22;6612;49.568;11.000;2022-09-20T08:43:01;17.20;74.00
13093;DHT22;6612;49.568;11.000;2022-09-20T08:45:30;17.30;74.00
13093;DHT22;6612;49.568;11.000;2022-09-20T08:47:59;17.30;73.60
13093;DHT22;6612;49.568;11.000;2022-09-20T08:50:27;17.30;73.10
13093;DHT22;6612;49.568;11.000;2022-09-20T08:52:56;17.30;72.90
13093;DHT22;6612;49.568;11.000;2022-09-20T08:55:30;17.30;72.30
13093;DHT22;6612;49.568;11.000;2022-09-20T08:57:58;17.30;72.60
13093;DHT22;6612;49.568;11.000;2022-09-20T09:00:29;17.20;72.30
13093;DHT22;6612;49.568;11.000;2022-09-20T09:03:02;17.20;71.70
13093;DHT22;6612;49.568;11.000;2022-09-20T09:05:35;17.20;72.70
13093;DHT22;6612;49.568;11.000;2022-09-20T09:08:08;17.20;72.30
13093;DHT22;6612;49.568;11.000;2022-09-20T09:10:41;17.20;73.00
13093;DHT22;6612;49.568;11.000;2022-09-20T09:13:17;17.20;73.40
13093;DHT22;6612;49.568;11.000;2022-09-20T09:15:52;17.30;72.40
13093;DHT22;6612;49.568;11.000;2022-09-20T09:18:27;17.40;73.60
13093;DHT22;6612;49.568;11.000;2022-09-20T09:20:55;17.40;73.60
13093;DHT22;6612;49.568;11.000;2022-09-20T09:23:26;17.50;74.70
13093;DHT22;6612;49.568;11.000;2022-09-20T09:25:54;17.60;73.80
13093;DHT22;6612;49.568;11.000;2022-09-20T09:28:23;17.70;74.40
13093;DHT22;6612;49.568;11.000;2022-09-20T09:30:50;17.80;74.10
13093;DHT22;6612;49.568;11.000;2022-09-20T09:33:24;17.90;74.20
13093;DHT22;6612;49.568;11.000;2022-09-20T09:35:56;17.90;72.40
13093;DHT22;6612;49.568;11.000;2022-09-20T09:38:26;18.00;73.60
13093;DHT22;6612;49.568;11.000;2022-09-20T09:40:55;18.20;74.40
13093;DHT22;6612;49.568;11.000;2022-09-20T09:43:25;18.30;75.60
13093;DHT22;6612;49.568;11.000;2022-09-20T09:45:55;18.40;76.60
13093;DHT22;6612;49.568;11.000;2022-09-20T09:48:26;18.70;76.70
13093;DHT22;6612;49.568;11.000;2022-09-20T09:51:10;18.90;75.20
13093;DHT22;6612;49.568;11.000;2022-09-20T09:53:40;19.10;73.00
13093;DHT22;6612;49.568;11.000;2022-09-20T09:56:20;19.20;73.80
13093;DHT22;6612;49.568;11.000;2022-09-20T10:01:47;19.40;70.70
13093;DHT22;6612;49.568;11.000;2022-09-20T10:04:24;19.50;71.90
13093;DHT22;6612;49.568;11.000;2022-09-20T10:07:00;19.50;70.70
13093;DHT22;6612;49.568;11.000;2022-09-20T10:09:47;19.50;69.40
13093;DHT22;6612;49.568;11.000;2022-09-20T10:12:30;19.50;68.80
13093;DHT22;6612;49.568;11.000;2022-09-20T10:15:12;19.50;68.80
13093;DHT22;6612;49.568;11.000;2022-09-20T10:17:52;19.50;68.50
13093;DHT22;6612;49.568;11.000;2022-09-20T10:20:33;19.50;68.40
13093;DHT22;6612;49.568;11.000;2022-09-20T10:23:15;19.50;69.50
13093;DHT22;6612;49.568;11.000;2022-09-20T10:25:47;19.50;69.30
13093;DHT22;6612;49.568;11.000;2022-09-20T10:28:33;19.50;70.20
13093;DHT22;6612;49.568;11.000;2022-09-20T10:31:19;19.60;68.10
13093;DHT22;6612;49.568;11.000;2022-09-20T10:34:04;19.70;68.90
13093;DHT22;6612;49.568;11.000;2022-09-20T10:36:38;19.70;66.60
13093;DHT22;6612;49.568;11.000;2022-09-20T10:39:12;19.70;66.80
13093;DHT22;6612;49.568;11.000;2022-09-20T10:41:51;19.60;66.40
13093;DHT22;6612;49.568;11.000;2022-09-20T10:45:02;19.50;65.20
13093;DHT22;6612;49.568;11.000;2022-09-20T10:47:33;19.50;64.70
13093;DHT22;6612;49.568;11.000;2022-09-20T10:50:06;19.40;65.80
13093;DHT22;6612;49.568;11.000;2022-09-20T10:52:54;19.40;66.90
13093;DHT22;6612;49.568;11.000;2022-09-20T10:55:33;19.40;65.40
13093;DHT22;6612;49.568;11.000;2022-09-20T10:58:51;19.40;66.10
13093;DHT22;6612;49.568;11.000;2022-09-20T11:01:27;19.50;65.00
13093;DHT22;6612;49.568;11.000;2022-09-20T11:07:10;19.60;66.00
13093;DHT22;6612;49.568;11.000;2022-09-20T11:09:43;19.70;65.90
13093;DHT22;6612;49.568;11.000;2022-09-20T11:12:15;19.70;65.50
13093;DHT22;6612;49.568;11.000;2022-09-20T11:14:50;19.80;65.20
13093;DHT22;6612;49.568;11.000;2022-09-20T11:17:22;19.80;65.00
13093;DHT22;6612;49.568;11.000;2022-09-20T11:19:55;19.80;64.60
13093;DHT22;6612;49.568;11.000;2022-09-20T11:22:29;19.80;64.30
13093;DHT22;6612;49.568;11.000;2022-09-20T11:25:05;19.80;64.60
13093;DHT22;6612;49.568;11.000;2022-09-20T11:27:41;19.80;64.60
13093;DHT22;6612;49.568;11.000;2022-09-20T11:30:15;19.90;65.10
13093;DHT22;6612;49.568;11.000;2022-09-20T11:32:45;20.00;64.90
13093;DHT22;6612;49.568;11.000;2022-09-20T11:35:22;20.00;66.00
13093;DHT22;6612;49.568;11.000;2022-09-20T11:38:02;20.00;63.40
13093;DHT22;6612;49.568;11.000;2022-09-20T11:40:34;20.10;64.00
13093;DHT22;6612;49.568;11.000;2022-09-20T11:43:04;20.10;63.60
13093;DHT22;6612;49.568;11.000;2022-09-20T11:45:33;20.00;63.10
13093;DHT22;6612;49.568;11.000;2022-09-20T11:48:02;20.00;62.70
13093;DHT22;6612;49.568;11.000;2022-09-20T11:53:34;19.80;60.10
13093;DHT22;6612;49.568;11.000;2022-09-20T11:56:11;19.80;60.50
13093;DHT22;6612;49.568;11.000;2022-09-20T11:58:46;19.70;61.30
13093;DHT22;6612;49.568;11.000;2022-09-20T12:01:15;19.70;61.20
13093;DHT22;6612;49.568;11.000;2022-09-20T12:03:52;19.60;61.40
13093;DHT22;6612;49.568;11.000;2022-09-20T12:06:25;19.50;61.00
13093;DHT22;6612;49.568;11.000;2022-09-20T12:08:54;19.50;60.20
13093;DHT22;6612;49.568;11.000;2022-09-20T12:11:29;19.40;60.90
13093;DHT22;6612;49.568;11.000;2022-09-20T12:14:01;19.40;60.80
13093;DHT22;6612;49.568;11.000;2022-09-20T12:16:38;19.40;61.40
13093;DHT22;6612;49.568;11.000;2022-09-20T12:19:09;19.40;60.60
13093;DHT22;6612;49.568;11.000;2022-09-20T12:27:58;19.50;60.00
13093;DHT22;6612;49.568;11.000;2022-09-20T12:30:25;19.60;60.40
13093;DHT22;6612;49.568;11.000;2022-09-20T12:32:56;19.60;61.70
13093;DHT22;6612;49.568;11.000;2022-09-20T12:38:56;19.60;59.10
13093;DHT22;6612;49.568;11.000;2022-09-20T12:41:24;19.60;59.80
13093;DHT22;6612;49.568;11.000;2022-09-20T12:44:03;19.60;61.20
13093;DHT22;6612;49.568;11.000;2022-09-20T12:46:40;19.50;59.70
13093;DHT22;6612;49.568;11.000;2022-09-20T12:49:33;19.60;59.90
13093;DHT22;6612;49.568;11.000;2022-09-20T12:52:52;19.60;59.20
13093;DHT22;6612;49.568;11.000;2022-09-20T12:58:32;19.70;60.40
13093;DHT22;6612;49.568;11.000;2022-09-20T13:04:40;19.80;60.20
13093;DHT22;6612;49.568;11.000;2022-09-20T13:07:31;19.90;60.50
13093;DHT22;6612;49.568;11.000;2022-09-20T13:10:04;20.00;60.50
13093;DHT22;6612;49.568;11.000;2022-09-20T13:12:36;20.10;61.80
13093;DHT22;6612;49.568;11.000;2022-09-20T13:15:05;20.10;61.80
13093;DHT22;6612;49.568;11.000;2022-09-20T13:17:35;20.10;61.40
13093;DHT22;6612;49.568;11.000;2022-09-20T13:20:04;20.10;61.20
13093;DHT22;6612;49.568;11.000;2022-09-20T13:22:34;20.20;59.70
13093;DHT22;6612;49.568;11.000;2022-09-20T13:25:13;20.10;59.10
13093;DHT22;6612;49.568;11.000;2022-09-20T13:27:45;20.10;57.90
13093;DHT22;6612;49.568;11.000;2022-09-20T13:30:17;20.00;58.20
13093;DHT22;6612;49.568;11.000;2022-09-20T13:32:44;20.00;58.10
13093;DHT22;6612;49.568;11.000;2022-09-20T13:35:15;19.80;58.40
13093;DHT22;6612;49.568;11.000;2022-09-20T13:37:50;19.80;57.80
13093;DHT22;6612;49.568;11.000;2022-09-20T13:40:20;19.70;57.70
13093;DHT22;6612;49.568;11.000;2022-09-20T13:42:48;19.70;58.00
13093;DHT22;6612;49.568;11.000;2022-09-20T13:45:18;19.60;58.30
13093;DHT22;6612;49.568;11.000;2022-09-20T13:47:48;19.60;58.20
13093;DHT22;6612;49.568;11.000;2022-09-20T13:50:21;19.50;57.70
13093;DHT22;6612;49.568;11.000;2022-09-20T13:52:50;19.50;57.70
13093;DHT22;6612;49.568;11.000;2022-09-20T13:55:21;19.40;58.90
13093;DHT22;6612;49.568;11.000;2022-09-20T13:57:49;19.40;58.20
13093;DHT22;6612;49.568;11.000;2022-09-20T14:00:17;19.40;58.80
13093;DHT22;6612;49.568;11.000;2022-09-20T14:02:47;19.30;58.00
13093;DHT22;6612;49.568;11.000;2022-09-20T14:05:17;19.30;58.30
13093;DHT22;6612;49.568;11.000;2022-09-20T14:07:46;19.40;58.60
13093;DHT22;6612;49.568;11.000;2022-09-20T14:10:28;19.40;58.60
13093;DHT22;6612;49.568;11.000;2022-09-20T14:12:56;19.40;56.30
13093;DHT22;6612;49.568;11.000;2022-09-20T14:15:25;19.40;57.90
13093;DHT22;6612;49.568;11.000;2022-09-20T14:17:54;19.40;58.10
13093;DHT22;6612;49.568;11.000;2022-09-20T14:20:23;19.50;57.60
13093;DHT22;6612;49.568;11.000;2022-09-20T14:22:51;19.50;57.20
13093;DHT22;6612;49.568;11.000;2022-09-20T14:25:20;19.50;57.70
13093;DHT22;6612;49.568;11.000;2022-09-20T14:28:06;19.50;57.60
13093;DHT22;6612;49.568;11.000;2022-09-20T14:30:40;19.50;56.20
13093;DHT22;6612;49.568;11.000;2022-09-20T14:33:14;19.50;58.00
13093;DHT22;6612;49.568;11.000;2022-09-20T14:35:48;19.50;56.20
13093;DHT22;6612;49.568;11.000;2022-09-20T14:38:16;19.60;56.60
13093;DHT22;6612;49.568;11.000;2022-09-20T14:40:45;19.50;57.10
13093;DHT22;6612;49.568;11.000;2022-09-20T14:43:22;19.60;57.00
13093;DHT22;6612;49.568;11.000;2022-09-20T14:45:53;19.50;55.60
13093;DHT22;6612;49.568;11.000;2022-09-20T14:48:34;19.50;56.40
13093;DHT22;6612;49.568;11.000;2022-09-20T14:51:18;19.60;55.00
13093;DHT22;6612;49.568;11.000;2022-09-20T14:53:48;19.60;55.90
13093;DHT22;6612;49.568;11.000;2022-09-20T14:56:24;19.70;57.50
13093;DHT22;6612;49.568;11.000;2022-09-20T14:59:20;19.70;57.50
13093;DHT22;6612;49.568;11.000;2022-09-20T15:02:01;19.70;55.00
13093;DHT22;6612;49.568;11.000;2022-09-20T15:04:29;19.70;54.90
13093;DHT22;6612;49.568;11.000;2022-09-20T15:07:02;19.70;56.60
13093;DHT22;6612;49.568;11.000;2022-09-20T15:09:29;19.60;55.40
13093;DHT22;6612;49.568;11.000;2022-09-20T15:12:01;19.50;56.80
13093;DHT22;6612;49.568;11.000;2022-09-20T15:14:28;19.40;56.80
13093;DHT22;6612;49.568;11.000;2022-09-20T15:16:56;19.20;57.10
13093;DHT22;6612;49.568;11.000;2022-09-20T15:19:24;19.10;56.90
13093;DHT22;6612;49.568;11.000;2022-09-20T15:21:51;18.90;57.20
13093;DHT22;6612;49.568;11.000;2022-09-20T15:24:19;18.70;57.60
13093;DHT22;6612;49.568;11.000;2022-09-20T15:26:46;18.60;57.80
13093;DHT22;6612;49.568;11.000;2022-09-20T15:29:15;18.40;57.80
13093;DHT22;6612;49.568;11.000;2022-09-20T15:31:42;18.20;57.40
13093;DHT22;6612;49.568;11.000;2022-09-20T15:34:10;18.10;57.60
13093;DHT22;6612;49.568;11.000;2022-09-20T15:36:39;18.00;57.60
13093;DHT22;6612;49.568;11.000;2022-09-20T15:39:06;17.90;57.80
13093;DHT22;6612;49.568;11.000;2022-09-20T15:41:35;17.80;58.30
13093;DHT22;6612;49.568;11.000;2022-09-20T15:44:02;17.70;58.70
13093;DHT22;6612;49.568;11.000;2022-09-20T15:46:29;17.60;58.90
13093;DHT22;6612;49.568;11.000;2022-09-20T15:48:58;17.60;59.20
13093;DHT22;6612;49.568;11.000;2022-09-20T15:51:27;17.50;59.40
13093;DHT22;6612;49.568;11.000;2022-09-20T15:53:56;17.50;59.80
13093;DHT22;6612;49.568;11.000;2022-09-20T15:56:24;17.50;59.90
13093;DHT22;6612;49.568;11.000;2022-09-20T15:58:55;17.40;59.60
13093;DHT22;6612;49.568;11.000;2022-09-20T16:01:24;17.40;59.60
13093;DHT22;6612;49.568;11.000;2022-09-20T16:03:51;17.30;59.80
13093;DHT22;6612;49.568;11.000;2022-09-20T16:06:19;17.30;60.00
13093;DHT22;6612;49.568;11.000;2022-09-20T16:08:47;17.20;59.90
13093;DHT22;6612;49.568;11.000;2022-09-20T16:11:15;17.20;60.10
13093;DHT22;6612;49.568;11.000;2022-09-20T16:13:44;17.10;60.20
13093;DHT22;6612;49.568;11.000;2022-09-20T16:16:12;17.10;60.20
13093;DHT22;6612;49.568;11.000;2022-09-20T16:18:40;17.00;60.30
13093;DHT22;6612;49.568;11.000;2022-09-20T16:21:25;16.90;60.60
13093;DHT22;6612;49.568;11.000;2022-09-20T16:23:53;16.90;60.40
13093;DHT22;6612;49.568;11.000;2022-09-20T16:26:22;16.80;60.40
13093;DHT22;6612;49.568;11.000;2022-09-20T16:28:49;16.70;60.50
13093;DHT22;6612;49.568;11.000;2022-09-20T16:31:33;16.70;60.90
13093;DHT22;6612;49.568;11.000;2022-09-20T16:34:05;16.60;60.70
13093;DHT22;6612;49.568;11.000;2022-09-20T16:36:33;16.50;61.00
13093;DHT22;6612;49.568;11.000;2022-09-20T16:39:00;16.40;61.10
13093;DHT22;6612;49.568;11.000;2022-09-20T16:41:28;16.40;61.60
13093;DHT22;6612;49.568;11.000;2022-09-20T16:43:56;16.30;62.00
13093;DHT22;6612;49.568;11.000;2022-09-20T16:46:24;16.20;62.10
13093;DHT22;6612;49.568;11.000;2022-09-20T16:48:54;16.20;62.00
13093;DHT22;6612;49.568;11.000;2022-09-20T16:51:22;16.10;61.80
13093;DHT22;6612;49.568;11.000;2022-09-20T16:53:51;16.10;62.30
13093;DHT22;6612;49.568;11.000;2022-09-20T16:56:21;16.10;62.50
13093;DHT22;6612;49.568;11.000;2022-09-20T16:58:48;16.00;62.00
13093;DHT22;6612;49.568;11.000;2022-09-20T17:01:15;16.00;62.00
13093;DHT22;6612;49.568;11.000;2022-09-20T17:03:43;15.90;62.90
13093;DHT22;6612;49.568;11.000;2022-09-20T17:06:12;15.90;62.40
13093;DHT22;6612;49.568;11.000;2022-09-20T17:08:40;15.90;62.80
13093;DHT22;6612;49.568;11.000;2022-09-20T17:11:09;15.80;63.10
13093;DHT22;6612;49.568;11.000;2022-09-20T17:13:37;15.80;63.50
13093;DHT22;6612;49.568;11.000;2022-09-20T17:16:08;15.70;63.30
13093;DHT22;6612;49.568;11.000;2022-09-20T17:18:36;15.70;63.10
13093;DHT22;6612;49.568;11.000;2022-09-20T17:21:07;15.70;63.30